sensor_id;sensor_type;location;lat;lon;timestamp;temperature;humidity
21540;DHT22;10931;52.164;5.518;2023-02-14T00:00:31;19.40;61.50
21540;DHT22;10931;52.164;5.518;2023-02-14T00:02:57;19.40;61.50
21540;DHT22;10931;52.164;5.518;2023-02-14T00:05:28;19.40;61.50
21540;DHT22;10931;52.164;5.518;2023-02-14T00:07:56;19.30;61.40
21540;DHT22;10931;52.164;5.518;2023-02-14T00:10:23;19.30;61.40
21540;DHT22;10931;52.164;5.518;2023-02-14T00:12:49;19.30;61.40
21540;DHT22;10931;52.164;5.518;2023-02-14T00:15:14;19.30;61.40
21540;DHT22;10931;52.164;5.518;2023-02-14T00:17:55;19.30;61.40
21540;DHT22;10931;52.164;5.518;2023-02-14T00:20:21;19.30;61.40
21540;DHT22;10931;52.164;5.518;2023-02-14T00:22:47;19.20;61.30
21540;DHT22;10931;52.164;5.518;2023-02-14T00:25:16;19.30;61.40
21540;DHT22;10931;52.164;5.518;2023-02-14T00:27:42;19.30;61.40
21540;DHT22;10931;52.164;5.518;2023-02-14T00:30:09;19.20;61.30
21540;DHT22;10931;52.164;5.518;2023-02-14T00:32:40;19.20;61.30
21540;DHT22;10931;52.164;5.518;2023-02-14T00:35:06;19.20;61.30
21540;DHT22;10931;52.164;5.518;2023-02-14T00:37:33;19.20;61.30
21540;DHT22;10931;52.164;5.518;2023-02-14T00:39:58;19.20;61.30
21540;DHT22;10931;52.164;5.518;2023-02-14T00:42:26;19.20;61.30
21540;DHT22;10931;52.164;5.518;2023-02-14T00:44:55;19.20;61.30
21540;DHT22;10931;52.164;5.518;2023-02-14T00:47:21;19.20;61.30
21540;DHT22;10931;52.164;5.518;2023-02-14T00:49:46;19.20;61.30
21540;DHT22;10931;52.164;5.518;2023-02-14T00:52:12;19.10;61.30
21540;DHT22;10931;52.164;5.518;2023-02-14T00:54:38;19.10;61.30
21540;DHT22;10931;52.164;5.518;2023-02-14T00:57:03;19.10;61.20
21540;DHT22;10931;52.164;5.518;2023-02-14T00:59:29;19.10;61.20
21540;DHT22;10931;52.164;5.518;2023-02-14T01:01:55;19.10;61.20
21540;DHT22;10931;52.164;5.518;2023-02-14T01:04:20;19.10;61.20
21540;DHT22;10931;52.164;5.518;2023-02-14T01:06:46;19.10;61.20
21540;DHT22;10931;52.164;5.518;2023-02-14T01:09:12;19.00;61.10
21540;DHT22;10931;52.164;5.518;2023-02-14T01:11:38;19.00;61.10
21540;DHT22;10931;52.164;5.518;2023-02-14T01:14:03;19.00;61.10
21540;DHT22;10931;52.164;5.518;2023-02-14T01:16:30;19.00;61.10
21540;DHT22;10931;52.164;5.518;2023-02-14T01:18:58;19.00;61.10
21540;DHT22;10931;52.164;5.518;2023-02-14T01:21:27;18.90;61.10
21540;DHT22;10931;52.164;5.518;2023-02-14T01:23:57;18.90;61.10
21540;DHT22;10931;52.164;5.518;2023-02-14T01:26:27;19.00;61.90
21540;DHT22;10931;52.164;5.518;2023-02-14T01:28:53;18.90;61.10
21540;DHT22;10931;52.164;5.518;2023-02-14T01:31:22;18.90;61.00
21540;DHT22;10931;52.164;5.518;2023-02-14T01:33:49;18.90;61.10
21540;DHT22;10931;52.164;5.518;2023-02-14T01:36:26;18.90;61.00
21540;DHT22;10931;52.164;5.518;2023-02-14T01:38:55;18.90;61.00
21540;DHT22;10931;52.164;5.518;2023-02-14T01:41:27;18.90;61.00
21540;DHT22;10931;52.164;5.518;2023-02-14T01:44:03;18.90;61.00
21540;DHT22;10931;52.164;5.518;2023-02-14T01:46:35;18.90;61.00
21540;DHT22;10931;52.164;5.518;2023-02-14T01:49:08;18.90;61.00
21540;DHT22;10931;52.164;5.518;2023-02-14T01:51:38;18.80;61.00
21540;DHT22;10931;52.164;5.518;2023-02-14T01:54:07;18.80;61.80
21540;DHT22;10931;52.164;5.518;2023-02-14T01:56:37;18.80;61.00
21540;DHT22;10931;52.164;5.518;2023-02-14T01:59:07;18.80;61.00
21540;DHT22;10931;52.164;5.518;2023-02-14T02:01:38;18.80;61.00
21540;DHT22;10931;52.164;5.518;2023-02-14T02:04:12;18.70;60.90
21540;DHT22;10931;52.164;5.518;2023-02-14T02:06:46;18.80;61.00
21540;DHT22;10931;52.164;5.518;2023-02-14T02:09:34;18.70;60.90
21540;DHT22;10931;52.164;5.518;2023-02-14T02:12:01;18.70;61.40
21540;DHT22;10931;52.164;5.518;2023-02-14T02:14:27;18.70;60.90
21540;DHT22;10931;52.164;5.518;2023-02-14T02:23:09;18.70;60.90
21540;DHT22;10931;52.164;5.518;2023-02-14T02:29:08;18.60;60.80
21540;DHT22;10931;52.164;5.518;2023-02-14T02:31:53;18.60;60.80
21540;DHT22;10931;52.164;5.518;2023-02-14T02:43:14;18.50;60.70
21540;DHT22;10931;52.164;5.518;2023-02-14T02:46:03;18.50;60.80
21540;DHT22;10931;52.164;5.518;2023-02-14T02:52:10;18.50;60.70
21540;DHT22;10931;52.164;5.518;2023-02-14T02:54:43;18.50;60.70
21540;DHT22;10931;52.164;5.518;2023-02-14T02:57:18;18.50;60.70
21540;DHT22;10931;52.164;5.518;2023-02-14T02:59:46;18.50;60.70
21540;DHT22;10931;52.164;5.518;2023-02-14T03:02:24;18.50;60.80
21540;DHT22;10931;52.164;5.518;2023-02-14T03:04:57;18.40;60.70
21540;DHT22;10931;52.164;5.518;2023-02-14T03:10:12;18.40;60.70
21540;DHT22;10931;52.164;5.518;2023-02-14T03:18:45;18.40;60.70
21540;DHT22;10931;52.164;5.518;2023-02-14T03:21:48;18.40;60.70
21540;DHT22;10931;52.164;5.518;2023-02-14T03:35:14;18.30;60.60
21540;DHT22;10931;52.164;5.518;2023-02-14T03:40:35;18.30;60.60
21540;DHT22;10931;52.164;5.518;2023-02-14T03:43:12;18.30;60.60
21540;DHT22;10931;52.164;5.518;2023-02-14T03:45:41;18.20;60.50
21540;DHT22;10931;52.164;5.518;2023-02-14T03:48:11;18.20;60.60
21540;DHT22;10931;52.164;5.518;2023-02-14T03:50:40;18.20;60.70
21540;DHT22;10931;52.164;5.518;2023-02-14T03:53:07;18.20;60.60
21540;DHT22;10931;52.164;5.518;2023-02-14T03:55:46;18.20;60.50
21540;DHT22;10931;52.164;5.518;2023-02-14T03:58:31;18.20;60.60
21540;DHT22;10931;52.164;5.518;2023-02-14T04:01:04;18.10;60.50
21540;DHT22;10931;52.164;5.518;2023-02-14T04:03:44;18.20;60.50
21540;DHT22;10931;52.164;5.518;2023-02-14T04:06:10;18.10;60.50
21540;DHT22;10931;52.164;5.518;2023-02-14T04:08:37;18.10;60.50
21540;DHT22;10931;52.164;5.518;2023-02-14T04:11:04;18.10;60.50
21540;DHT22;10931;52.164;5.518;2023-02-14T04:13:30;18.10;60.50
21540;DHT22;10931;52.164;5.518;2023-02-14T04:15:56;18.10;60.50
21540;DHT22;10931;52.164;5.518;2023-02-14T04:18:24;18.10;60.50
21540;DHT22;10931;52.164;5.518;2023-02-14T04:21:08;18.10;60.50
21540;DHT22;10931;52.164;5.518;2023-02-14T04:23:34;18.10;60.40
21540;DHT22;10931;52.164;5.518;2023-02-14T04:26:00;18.00;60.40
21540;DHT22;10931;52.164;5.518;2023-02-14T04:28:30;18.00;60.40
21540;DHT22;10931;52.164;5.518;2023-02-14T04:31:03;18.00;60.40
21540;DHT22;10931;52.164;5.518;2023-02-14T04:33:29;18.00;60.30
21540;DHT22;10931;52.164;5.518;2023-02-14T04:35:55;18.00;60.30
21540;DHT22;10931;52.164;5.518;2023-02-14T04:38:21;18.00;60.30
21540;DHT22;10931;52.164;5.518;2023-02-14T04:40:48;18.00;60.30
21540;DHT22;10931;52.164;5.518;2023-02-14T04:43:14;18.00;60.30
21540;DHT22;10931;52.164;5.518;2023-02-14T04:45:40;18.00;60.30
21540;DHT22;10931;52.164;5.518;2023-02-14T04:48:06;18.00;60.30
21540;DHT22;10931;52.164;5.518;2023-02-14T04:50:31;17.90;60.30
21540;DHT22;10931;52.164;5.518;2023-02-14T04:52:57;17.90;60.30
21540;DHT22;10931;52.164;5.518;2023-02-14T04:55:23;17.90;60.30
21540;DHT22;10931;52.164;5.518;2023-02-14T04:57:49;17.90;60.30
21540;DHT22;10931;52.164;5.518;2023-02-14T05:00:15;17.90;60.30
21540;DHT22;10931;52.164;5.518;2023-02-14T05:02:40;17.90;60.30
21540;DHT22;10931;52.164;5.518;2023-02-14T05:05:06;17.90;60.30
21540;DHT22;10931;52.164;5.518;2023-02-14T05:07:32;17.80;60.20
21540;DHT22;10931;52.164;5.518;2023-02-14T05:09:58;17.80;60.20
21540;DHT22;10931;52.164;5.518;2023-02-14T05:12:23;17.80;60.20
21540;DHT22;10931;52.164;5.518;2023-02-14T05:14:49;17.80;60.20
21540;DHT22;10931;52.164;5.518;2023-02-14T05:17:15;17.80;60.20
21540;DHT22;10931;52.164;5.518;2023-02-14T05:19:40;17.80;60.20
21540;DHT22;10931;52.164;5.518;2023-02-14T05:22:06;17.80;60.20
21540;DHT22;10931;52.164;5.518;2023-02-14T05:24:32;17.80;60.20
21540;DHT22;10931;52.164;5.518;2023-02-14T05:26:57;17.80;60.20
21540;DHT22;10931;52.164;5.518;2023-02-14T05:29:24;17.80;60.20
21540;DHT22;10931;52.164;5.518;2023-02-14T05:31:49;17.70;60.10
21540;DHT22;10931;52.164;5.518;2023-02-14T05:34:18;17.70;60.10
21540;DHT22;10931;52.164;5.518;2023-02-14T05:36:44;17.70;60.10
21540;DHT22;10931;52.164;5.518;2023-02-14T05:39:09;17.70;60.10
21540;DHT22;10931;52.164;5.518;2023-02-14T05:41:39;17.70;60.20
21540;DHT22;10931;52.164;5.518;2023-02-14T05:44:04;17.70;60.10
21540;DHT22;10931;52.164;5.518;2023-02-14T05:46:30;17.70;60.50
21540;DHT22;10931;52.164;5.518;2023-02-14T05:48:58;17.70;60.20
21540;DHT22;10931;52.164;5.518;2023-02-14T05:51:24;17.70;60.10
21540;DHT22;10931;52.164;5.518;2023-02-14T05:53:49;17.60;60.10
21540;DHT22;10931;52.164;5.518;2023-02-14T05:56:15;17.60;60.90
21540;DHT22;10931;52.164;5.518;2023-02-14T05:58:41;17.60;60.00
21540;DHT22;10931;52.164;5.518;2023-02-14T06:01:06;17.60;60.00
21540;DHT22;10931;52.164;5.518;2023-02-14T06:03:32;17.60;60.10
21540;DHT22;10931;52.164;5.518;2023-02-14T06:05:58;17.60;60.00
21540;DHT22;10931;52.164;5.518;2023-02-14T06:08:23;17.50;60.00
21540;DHT22;10931;52.164;5.518;2023-02-14T06:10:52;17.50;60.00
21540;DHT22;10931;52.164;5.518;2023-02-14T06:13:17;17.50;60.00
21540;DHT22;10931;52.164;5.518;2023-02-14T06:15:43;17.60;60.10
21540;DHT22;10931;52.164;5.518;2023-02-14T06:18:09;17.50;60.00
21540;DHT22;10931;52.164;5.518;2023-02-14T06:20:35;17.50;60.00
21540;DHT22;10931;52.164;5.518;2023-02-14T06:23:03;17.50;60.00
21540;DHT22;10931;52.164;5.518;2023-02-14T06:25:29;17.50;60.00
21540;DHT22;10931;52.164;5.518;2023-02-14T06:27:55;17.50;60.00
21540;DHT22;10931;52.164;5.518;2023-02-14T06:30:21;17.50;60.10
21540;DHT22;10931;52.164;5.518;2023-02-14T06:32:47;17.40;60.00
21540;DHT22;10931;52.164;5.518;2023-02-14T06:35:13;17.40;60.00
21540;DHT22;10931;52.164;5.518;2023-02-14T06:37:39;17.40;60.00
21540;DHT22;10931;52.164;5.518;2023-02-14T06:40:07;17.50;60.00
21540;DHT22;10931;52.164;5.518;2023-02-14T06:42:33;17.40;60.00
21540;DHT22;10931;52.164;5.518;2023-02-14T06:44:59;17.40;60.00
21540;DHT22;10931;52.164;5.518;2023-02-14T06:47:29;17.40;60.00
21540;DHT22;10931;52.164;5.518;2023-02-14T06:49:54;17.40;60.00
21540;DHT22;10931;52.164;5.518;2023-02-14T06:52:23;17.40;60.00
21540;DHT22;10931;52.164;5.518;2023-02-14T06:54:48;17.40;60.00
21540;DHT22;10931;52.164;5.518;2023-02-14T06:57:14;17.30;60.00
21540;DHT22;10931;52.164;5.518;2023-02-14T06:59:40;17.30;60.00
21540;DHT22;10931;52.164;5.518;2023-02-14T07:02:05;17.30;59.90
21540;DHT22;10931;52.164;5.518;2023-02-14T07:04:31;17.30;59.90
21540;DHT22;10931;52.164;5.518;2023-02-14T07:06:57;17.30;59.90
21540;DHT22;10931;52.164;5.518;2023-02-14T07:09:25;17.30;60.00
21540;DHT22;10931;52.164;5.518;2023-02-14T07:11:51;17.30;60.00
21540;DHT22;10931;52.164;5.518;2023-02-14T07:14:16;17.30;59.90
21540;DHT22;10931;52.164;5.518;2023-02-14T07:16:42;17.30;59.90
21540;DHT22;10931;52.164;5.518;2023-02-14T07:19:08;17.20;59.90
21540;DHT22;10931;52.164;5.518;2023-02-14T07:21:33;17.20;59.90
21540;DHT22;10931;52.164;5.518;2023-02-14T07:23:59;17.20;59.90
21540;DHT22;10931;52.164;5.518;2023-02-14T07:26:25;17.20;59.90
21540;DHT22;10931;52.164;5.518;2023-02-14T07:28:50;17.20;59.90
21540;DHT22;10931;52.164;5.518;2023-02-14T07:31:17;17.20;59.90
21540;DHT22;10931;52.164;5.518;2023-02-14T07:33:44;17.20;59.90
21540;DHT22;10931;52.164;5.518;2023-02-14T07:36:10;17.20;59.90
21540;DHT22;10931;52.164;5.518;2023-02-14T07:38:35;17.20;59.90
21540;DHT22;10931;52.164;5.518;2023-02-14T07:41:01;17.20;59.90
21540;DHT22;10931;52.164;5.518;2023-02-14T07:43:27;17.20;59.90
21540;DHT22;10931;52.164;5.518;2023-02-14T07:45:53;17.20;59.90
21540;DHT22;10931;52.164;5.518;2023-02-14T07:48:19;17.10;60.60
21540;DHT22;10931;52.164;5.518;2023-02-14T07:50:44;17.10;59.90
21540;DHT22;10931;52.164;5.518;2023-02-14T07:53:10;17.10;59.90
21540;DHT22;10931;52.164;5.518;2023-02-14T07:55:36;17.10;59.90
21540;DHT22;10931;52.164;5.518;2023-02-14T07:58:04;17.10;59.90
21540;DHT22;10931;52.164;5.518;2023-02-14T08:00:30;17.10;59.90
21540;DHT22;10931;52.164;5.518;2023-02-14T08:02:55;17.10;59.90
21540;DHT22;10931;52.164;5.518;2023-02-14T08:05:22;17.10;59.90
21540;DHT22;10931;52.164;5.518;2023-02-14T08:07:47;17.10;59.90
21540;DHT22;10931;52.164;5.518;2023-02-14T08:10:15;17.00;59.80
21540;DHT22;10931;52.164;5.518;2023-02-14T08:12:42;17.00;59.80
21540;DHT22;10931;52.164;5.518;2023-02-14T08:15:23;17.10;59.90
21540;DHT22;10931;52.164;5.518;2023-02-14T08:18:07;17.00;59.80
21540;DHT22;10931;52.164;5.518;2023-02-14T08:20:33;17.00;59.90
21540;DHT22;10931;52.164;5.518;2023-02-14T08:22:58;17.00;59.90
21540;DHT22;10931;52.164;5.518;2023-02-14T08:25:24;17.00;59.90
21540;DHT22;10931;52.164;5.518;2023-02-14T08:27:50;17.00;59.90
21540;DHT22;10931;52.164;5.518;2023-02-14T08:30:15;17.00;59.90
21540;DHT22;10931;52.164;5.518;2023-02-14T08:32:41;17.00;59.80
21540;DHT22;10931;52.164;5.518;2023-02-14T08:35:07;17.00;59.90
21540;DHT22;10931;52.164;5.518;2023-02-14T08:37:36;17.00;59.90
21540;DHT22;10931;52.164;5.518;2023-02-14T08:40:02;17.00;59.90
21540;DHT22;10931;52.164;5.518;2023-02-14T08:42:27;17.00;59.90
21540;DHT22;10931;52.164;5.518;2023-02-14T08:44:54;17.00;59.90
21540;DHT22;10931;52.164;5.518;2023-02-14T08:47:20;17.00;59.90
21540;DHT22;10931;52.164;5.518;2023-02-14T08:49:45;16.90;59.80
21540;DHT22;10931;52.164;5.518;2023-02-14T08:52:18;17.00;59.90
21540;DHT22;10931;52.164;5.518;2023-02-14T08:54:53;16.90;59.90
21540;DHT22;10931;52.164;5.518;2023-02-14T08:57:19;16.90;59.90
21540;DHT22;10931;52.164;5.518;2023-02-14T08:59:47;16.90;59.90
21540;DHT22;10931;52.164;5.518;2023-02-14T09:02:16;16.90;59.90
21540;DHT22;10931;52.164;5.518;2023-02-14T09:04:42;16.90;59.90
21540;DHT22;10931;52.164;5.518;2023-02-14T09:07:11;16.90;59.90
21540;DHT22;10931;52.164;5.518;2023-02-14T09:09:37;16.90;59.90
21540;DHT22;10931;52.164;5.518;2023-02-14T09:12:05;16.90;59.90
21540;DHT22;10931;52.164;5.518;2023-02-14T09:14:38;16.90;59.90
21540;DHT22;10931;52.164;5.518;2023-02-14T09:17:06;16.90;59.90
21540;DHT22;10931;52.164;5.518;2023-02-14T09:19:35;16.90;60.00
21540;DHT22;10931;52.164;5.518;2023-02-14T09:22:02;16.90;60.00
21540;DHT22;10931;52.164;5.518;2023-02-14T09:24:32;16.90;60.00
21540;DHT22;10931;52.164;5.518;2023-02-14T09:26:59;16.90;60.00
21540;DHT22;10931;52.164;5.518;2023-02-14T09:29:26;16.90;60.00
21540;DHT22;10931;52.164;5.518;2023-02-14T09:31:53;16.80;59.90
21540;DHT22;10931;52.164;5.518;2023-02-14T09:34:19;16.90;60.00
21540;DHT22;10931;52.164;5.518;2023-02-14T09:36:45;16.90;60.00
21540;DHT22;10931;52.164;5.518;2023-02-14T09:39:29;16.80;60.00
21540;DHT22;10931;52.164;5.518;2023-02-14T09:44:28;16.80;60.00
21540;DHT22;10931;52.164;5.518;2023-02-14T09:47:04;16.80;60.00
21540;DHT22;10931;52.164;5.518;2023-02-14T09:49:33;16.80;60.00
21540;DHT22;10931;52.164;5.518;2023-02-14T09:52:04;16.80;60.00
21540;DHT22;10931;52.164;5.518;2023-02-14T09:54:32;16.80;60.00
21540;DHT22;10931;52.164;5.518;2023-02-14T09:59:50;16.80;60.10
21540;DHT22;10931;52.164;5.518;2023-02-14T10:10:41;16.80;60.10
21540;DHT22;10931;52.164;5.518;2023-02-14T10:13:23;16.80;60.10
21540;DHT22;10931;52.164;5.518;2023-02-14T10:15:58;16.80;60.10
21540;DHT22;10931;52.164;5.518;2023-02-14T10:18:51;16.80;60.10
21540;DHT22;10931;52.164;5.518;2023-02-14T10:21:40;16.80;60.10
21540;DHT22;10931;52.164;5.518;2023-02-14T10:24:37;16.80;60.10
21540;DHT22;10931;52.164;5.518;2023-02-14T10:29:52;16.80;60.20
21540;DHT22;10931;52.164;5.518;2023-02-14T10:32:28;16.80;60.20
21540;DHT22;10931;52.164;5.518;2023-02-14T10:34:56;16.80;60.20
21540;DHT22;10931;52.164;5.518;2023-02-14T10:40:27;16.80;60.20
21540;DHT22;10931;52.164;5.518;2023-02-14T10:54:23;16.90;60.30
21540;DHT22;10931;52.164;5.518;2023-02-14T10:56:35;16.90;60.30
21540;DHT22;10931;52.164;5.518;2023-02-14T11:01:43;16.90;60.30
21540;DHT22;10931;52.164;5.518;2023-02-14T11:04:10;16.90;60.40
21540;DHT22;10931;52.164;5.518;2023-02-14T11:06:38;16.90;60.30
21540;DHT22;10931;52.164;5.518;2023-02-14T11:09:08;16.90;60.30
21540;DHT22;10931;52.164;5.518;2023-02-14T11:11:38;16.90;60.30
21540;DHT22;10931;52.164;5.518;2023-02-14T11:14:29;16.90;60.30
21540;DHT22;10931;52.164;5.518;2023-02-14T11:16:57;16.90;60.40
21540;DHT22;10931;52.164;5.518;2023-02-14T11:21:56;16.90;60.30
21540;DHT22;10931;52.164;5.518;2023-02-14T11:27:16;17.00;60.40
21540;DHT22;10931;52.164;5.518;2023-02-14T11:29:45;17.00;60.40
21540;DHT22;10931;52.164;5.518;2023-02-14T11:32:25;17.00;60.40
21540;DHT22;10931;52.164;5.518;2023-02-14T11:34:54;17.00;60.40
21540;DHT22;10931;52.164;5.518;2023-02-14T11:39:49;17.00;60.40
21540;DHT22;10931;52.164;5.518;2023-02-14T11:44:56;17.00;60.40
21540;DHT22;10931;52.164;5.518;2023-02-14T11:47:33;17.10;60.40
21540;DHT22;10931;52.164;5.518;2023-02-14T11:50:20;17.10;60.50
21540;DHT22;10931;52.164;5.518;2023-02-14T11:53:09;17.10;60.50
21540;DHT22;10931;52.164;5.518;2023-02-14T11:55:39;17.10;60.50
21540;DHT22;10931;52.164;5.518;2023-02-14T11:58:06;17.10;60.50
21540;DHT22;10931;52.164;5.518;2023-02-14T12:00:32;17.10;60.50
21540;DHT22;10931;52.164;5.518;2023-02-14T12:03:01;17.20;60.60
21540;DHT22;10931;52.164;5.518;2023-02-14T12:05:36;17.20;60.60
21540;DHT22;10931;52.164;5.518;2023-02-14T12:08:08;17.20;60.60
21540;DHT22;10931;52.164;5.518;2023-02-14T12:10:35;17.20;60.60
21540;DHT22;10931;52.164;5.518;2023-02-14T12:18:31;17.30;60.60
21540;DHT22;10931;52.164;5.518;2023-02-14T12:24:09;17.30;60.60
21540;DHT22;10931;52.164;5.518;2023-02-14T12:26:51;17.30;60.60
21540;DHT22;10931;52.164;5.518;2023-02-14T12:29:40;17.30;60.60
21540;DHT22;10931;52.164;5.518;2023-02-14T12:32:19;17.40;60.80
21540;DHT22;10931;52.164;5.518;2023-02-14T12:34:46;17.40;61.00
21540;DHT22;10931;52.164;5.518;2023-02-14T12:37:28;17.50;61.20
21540;DHT22;10931;52.164;5.518;2023-02-14T12:42:55;17.70;61.50
21540;DHT22;10931;52.164;5.518;2023-02-14T12:51:31;18.10;61.80
21540;DHT22;10931;52.164;5.518;2023-02-14T13:00:03;18.50;61.80
21540;DHT22;10931;52.164;5.518;2023-02-14T13:08:26;18.90;61.70
21540;DHT22;10931;52.164;5.518;2023-02-14T13:11:18;19.00;61.70
21540;DHT22;10931;52.164;5.518;2023-02-14T13:22:38;19.30;61.60
21540;DHT22;10931;52.164;5.518;2023-02-14T13:25:17;19.30;61.60
21540;DHT22;10931;52.164;5.518;2023-02-14T13:27:45;19.40;61.60
21540;DHT22;10931;52.164;5.518;2023-02-14T13:30:22;19.40;61.70
21540;DHT22;10931;52.164;5.518;2023-02-14T13:32:49;19.40;61.70
21540;DHT22;10931;52.164;5.518;2023-02-14T13:35:25;19.50;61.70
21540;DHT22;10931;52.164;5.518;2023-02-14T13:37:58;19.50;61.70
21540;DHT22;10931;52.164;5.518;2023-02-14T13:40:29;19.50;61.80
21540;DHT22;10931;52.164;5.518;2023-02-14T13:42:59;19.60;61.90
21540;DHT22;10931;52.164;5.518;2023-02-14T13:48:12;19.60;61.80
21540;DHT22;10931;52.164;5.518;2023-02-14T13:50:58;19.60;61.80
21540;DHT22;10931;52.164;5.518;2023-02-14T13:53:43;19.60;61.90
21540;DHT22;10931;52.164;5.518;2023-02-14T13:59:02;19.70;62.00
21540;DHT22;10931;52.164;5.518;2023-02-14T14:01:51;19.70;62.00
21540;DHT22;10931;52.164;5.518;2023-02-14T14:07:16;19.80;62.10
21540;DHT22;10931;52.164;5.518;2023-02-14T14:19:59;19.90;62.30
21540;DHT22;10931;52.164;5.518;2023-02-14T14:22:26;19.90;62.30
21540;DHT22;10931;52.164;5.518;2023-02-14T14:25:01;19.90;62.30
21540;DHT22;10931;52.164;5.518;2023-02-14T14:27:41;19.90;62.20
21540;DHT22;10931;52.164;5.518;2023-02-14T14:30:18;20.00;62.30
21540;DHT22;10931;52.164;5.518;2023-02-14T14:32:44;20.00;62.30
21540;DHT22;10931;52.164;5.518;2023-02-14T14:35:23;20.00;62.30
21540;DHT22;10931;52.164;5.518;2023-02-14T14:37:55;20.00;62.10
21540;DHT22;10931;52.164;5.518;2023-02-14T14:40:35;20.00;62.10
21540;DHT22;10931;52.164;5.518;2023-02-14T14:43:13;20.00;62.50
21540;DHT22;10931;52.164;5.518;2023-02-14T14:45:40;20.10;62.10
21540;DHT22;10931;52.164;5.518;2023-02-14T14:48:12;20.10;62.10
21540;DHT22;10931;52.164;5.518;2023-02-14T14:50:43;20.10;62.00
21540;DHT22;10931;52.164;5.518;2023-02-14T14:53:30;20.10;62.00
21540;DHT22;10931;52.164;5.518;2023-02-14T14:55:59;20.10;62.00
21540;DHT22;10931;52.164;5.518;2023-02-14T15:00:56;20.10;62.70
21540;DHT22;10931;52.164;5.518;2023-02-14T15:03:24;20.10;61.80
21540;DHT22;10931;52.164;5.518;2023-02-14T15:06:03;20.20;61.90
21540;DHT22;10931;52.164;5.518;2023-02-14T15:08:32;20.20;62.00
21540;DHT22;10931;52.164;5.518;2023-02-14T15:11:21;20.20;61.90
21540;DHT22;10931;52.164;5.518;2023-02-14T15:14:20;20.20;62.00
21540;DHT22;10931;52.164;5.518;2023-02-14T15:16:52;20.20;62.00
21540;DHT22;10931;52.164;5.518;2023-02-14T15:22:05;20.20;62.00
21540;DHT22;10931;52.164;5.518;2023-02-14T15:24:37;20.30;62.10
21540;DHT22;10931;52.164;5.518;2023-02-14T15:27:02;20.30;62.10
21540;DHT22;10931;52.164;5.518;2023-02-14T15:29:32;20.20;62.00
21540;DHT22;10931;52.164;5.518;2023-02-14T15:31:59;20.30;62.10
21540;DHT22;10931;52.164;5.518;2023-02-14T15:34:30;20.30;62.10
21540;DHT22;10931;52.164;5.518;2023-02-14T15:37:06;20.30;62.10
21540;DHT22;10931;52.164;5.518;2023-02-14T15:40:19;20.30;62.20
21540;DHT22;10931;52.164;5.518;2023-02-14T15:42:44;20.30;62.10
21540;DHT22;10931;52.164;5.518;2023-02-14T15:45:29;20.30;62.10
21540;DHT22;10931;52.164;5.518;2023-02-14T15:48:04;20.40;62.10
21540;DHT22;10931;52.164;5.518;2023-02-14T15:50:34;20.40;62.10
21540;DHT22;10931;52.164;5.518;2023-02-14T15:53:28;20.40;62.10
21540;DHT22;10931;52.164;5.518;2023-02-14T15:55:51;20.40;62.10
21540;DHT22;10931;52.164;5.518;2023-02-14T15:58:27;20.40;62.00
21540;DHT22;10931;52.164;5.518;2023-02-14T16:00:54;20.40;62.10
21540;DHT22;10931;52.164;5.518;2023-02-14T16:03:26;20.40;62.00
21540;DHT22;10931;52.164;5.518;2023-02-14T16:05:53;20.40;62.00
21540;DHT22;10931;52.164;5.518;2023-02-14T16:08:34;20.40;62.00
21540;DHT22;10931;52.164;5.518;2023-02-14T16:13:36;20.50;62.00
21540;DHT22;10931;52.164;5.518;2023-02-14T16:16:05;20.50;62.00
21540;DHT22;10931;52.164;5.518;2023-02-14T16:18:41;20.50;62.00
21540;DHT22;10931;52.164;5.518;2023-02-14T16:21:27;20.40;62.00
21540;DHT22;10931;52.164;5.518;2023-02-14T16:26:31;20.50;62.00
21540;DHT22;10931;52.164;5.518;2023-02-14T16:28:57;20.50;62.00
21540;DHT22;10931;52.164;5.518;2023-02-14T16:31:23;20.50;62.00
21540;DHT22;10931;52.164;5.518;2023-02-14T16:33:50;20.50;62.00
21540;DHT22;10931;52.164;5.518;2023-02-14T16:38:47;20.50;61.90
21540;DHT22;10931;52.164;5.518;2023-02-14T16:41:16;20.50;61.80
21540;DHT22;10931;52.164;5.518;2023-02-14T16:43:42;20.50;61.80
21540;DHT22;10931;52.164;5.518;2023-02-14T16:46:31;20.50;61.80
21540;DHT22;10931;52.164;5.518;2023-02-14T16:48:59;20.50;62.60
21540;DHT22;10931;52.164;5.518;2023-02-14T16:51:30;20.50;61.80
21540;DHT22;10931;52.164;5.518;2023-02-14T16:54:01;20.50;61.80
21540;DHT22;10931;52.164;5.518;2023-02-14T16:56:39;20.40;61.70
21540;DHT22;10931;52.164;5.518;2023-02-14T16:59:06;20.40;61.70
21540;DHT22;10931;52.164;5.518;2023-02-14T17:01:32;20.50;61.70
21540;DHT22;10931;52.164;5.518;2023-02-14T17:03:59;20.50;61.70
21540;DHT22;10931;52.164;5.518;2023-02-14T17:06:26;20.50;62.50
21540;DHT22;10931;52.164;5.518;2023-02-14T17:08:58;20.50;61.70
21540;DHT22;10931;52.164;5.518;2023-02-14T17:11:33;20.50;61.60
21540;DHT22;10931;52.164;5.518;2023-02-14T17:13:59;20.50;61.60
21540;DHT22;10931;52.164;5.518;2023-02-14T17:16:25;20.50;61.60
21540;DHT22;10931;52.164;5.518;2023-02-14T17:18:51;20.50;61.60
21540;DHT22;10931;52.164;5.518;2023-02-14T17:21:20;20.50;61.50
21540;DHT22;10931;52.164;5.518;2023-02-14T17:23:46;20.50;61.60
21540;DHT22;10931;52.164;5.518;2023-02-14T17:26:12;20.50;61.50
21540;DHT22;10931;52.164;5.518;2023-02-14T17:28:38;20.40;61.50
21540;DHT22;10931;52.164;5.518;2023-02-14T17:31:05;20.40;61.50
21540;DHT22;10931;52.164;5.518;2023-02-14T17:33:31;20.40;61.50
21540;DHT22;10931;52.164;5.518;2023-02-14T17:36:05;20.40;61.50
21540;DHT22;10931;52.164;5.518;2023-02-14T17:38:34;20.40;61.50
21540;DHT22;10931;52.164;5.518;2023-02-14T17:41:24;20.40;61.40
21540;DHT22;10931;52.164;5.518;2023-02-14T17:43:50;20.40;61.40
21540;DHT22;10931;52.164;5.518;2023-02-14T17:46:17;20.40;61.40
21540;DHT22;10931;52.164;5.518;2023-02-14T17:48:44;20.40;61.50
21540;DHT22;10931;52.164;5.518;2023-02-14T17:51:17;20.40;61.40
21540;DHT22;10931;52.164;5.518;2023-02-14T17:53:45;20.40;61.40
21540;DHT22;10931;52.164;5.518;2023-02-14T17:56:19;20.40;61.40
21540;DHT22;10931;52.164;5.518;2023-02-14T17:58:47;20.40;61.40
21540;DHT22;10931;52.164;5.518;2023-02-14T18:01:23;20.40;61.40
21540;DHT22;10931;52.164;5.518;2023-02-14T18:03:49;20.40;61.40
21540;DHT22;10931;52.164;5.518;2023-02-14T18:06:18;20.40;61.40
21540;DHT22;10931;52.164;5.518;2023-02-14T18:08:46;20.40;61.40
21540;DHT22;10931;52.164;5.518;2023-02-14T18:11:19;20.40;61.40
21540;DHT22;10931;52.164;5.518;2023-02-14T18:13:46;20.40;61.40
21540;DHT22;10931;52.164;5.518;2023-02-14T18:16:16;20.30;61.40
21540;DHT22;10931;52.164;5.518;2023-02-14T18:18:43;20.30;61.40
21540;DHT22;10931;52.164;5.518;2023-02-14T18:21:21;20.30;61.40
21540;DHT22;10931;52.164;5.518;2023-02-14T18:23:48;20.30;61.40
21540;DHT22;10931;52.164;5.518;2023-02-14T18:26:25;20.30;61.40